Time;durP1;ratioP1;P1;durP2;ratioP2;P2;SDS_P1;SDS_P2;PMS_P1;PMS_P2;Temp;Humidity;BMP_temperature;BMP_pressure;BME280_temperature;BME280_humidity;BME280_pressure;Samples;Min_cycle;Max_cycle;Signal;HPM_P1;HPM_P2
2022/01/24 00:02:02;;;;;;;6.00;4.03;;;;;;;;;;5093796;28;20397;-71
2022/01/24 00:04:28;;;;;;;6.85;4.10;;;;;;;;;;5095470;28;20051;-71
2022/01/24 00:06:54;;;;;;;8.00;4.35;;;;;;;;;;5091454;28;20052;-70
2022/01/24 00:09:20;;;;;;;7.30;4.00;;;;;;;;;;5098162;28;20111;-70
2022/01/24 00:11:59;;;;;;;9.73;4.35;;;;;;;;;;5095739;28;20109;-71
2022/01/24 00:27:52;;;;;;;7.78;4.20;;;;;;;;;;5058946;28;20105;-70
2022/01/24 00:30:18;;;;;;;6.68;4.20;;;;;;;;;;5081940;28;20055;-70
2022/01/24 00:32:45;;;;;;;6.72;3.85;;;;;;;;;;5085927;28;20047;-70
2022/01/24 00:35:11;;;;;;;7.22;4.38;;;;;;;;;;5104362;27;20051;-70
2022/01/24 00:37:38;;;;;;;8.60;5.05;;;;;;;;;;5098863;28;20048;-71
2022/01/24 00:40:04;;;;;;;6.68;4.07;;;;;;;;;;5110272;28;20056;-70
2022/01/24 00:42:37;;;;;;;8.30;4.93;;;;;;;;;;5096038;28;20749;-71
2022/01/24 00:45:18;;;;;;;6.72;4.05;;;;;;;;;;5094204;28;20154;-70
2022/01/24 00:53:11;;;;;;;;;;;;;;;;;;5098138;27;20097;-70
2022/01/24 00:55:37;;;;;;;8.15;4.80;;;;;;;;;;5106654;28;19938;-71
2022/01/24 00:58:03;;;;;;;8.32;4.65;;;;;;;;;;5095717;28;20470;-70
2022/01/24 01:00:29;;;;;;;8.80;5.10;;;;;;;;;;5091212;28;20036;-71
2022/01/24 01:02:55;;;;;;;7.18;4.45;;;;;;;;;;5093032;28;20052;-70
2022/01/24 01:08:01;;;;;;;9.88;4.45;;;;;;;;;;5110738;28;20104;-70
2022/01/24 01:18:42;;;;;;;8.02;5.15;;;;;;;;;;5102776;28;20022;-70
2022/01/24 01:23:38;;;;;;;9.00;4.82;;;;;;;;;;5088239;28;20051;-70
2022/01/24 01:26:08;;;;;;;9.40;5.13;;;;;;;;;;5103393;28;20580;-70
2022/01/24 01:28:35;;;;;;;8.82;5.00;;;;;;;;;;5102973;28;20490;-70
2022/01/24 01:31:07;;;;;;;7.93;4.78;;;;;;;;;;5098077;28;20912;-71
2022/01/24 01:33:55;;;;;;;8.52;5.13;;;;;;;;;;5097573;28;20048;-70
2022/01/24 01:37:04;;;;;;;8.50;5.00;;;;;;;;;;5091814;28;20076;-70
2022/01/24 01:52:56;;;;;;;9.45;5.13;;;;;;;;;;5104838;28;20501;-71
2022/01/24 01:55:36;;;;;;;10.07;5.00;;;;;;;;;;5095972;28;20040;-70
2022/01/24 01:58:04;;;;;;;7.38;4.35;;;;;;;;;;5086318;28;20406;-70
2022/01/24 02:00:29;;;;;;;8.45;4.65;;;;;;;;;;5090594;28;20048;-70
2022/01/24 02:02:55;;;;;;;7.85;4.88;;;;;;;;;;5101225;28;20159;-70
2022/01/24 02:05:22;;;;;;;8.65;5.40;;;;;;;;;;5090802;28;20074;-71
2022/01/24 02:07:49;;;;;;;9.23;4.97;;;;;;;;;;5099810;28;20081;-70
2022/01/24 02:10:16;;;;;;;9.90;5.03;;;;;;;;;;5081881;28;20052;-71
2022/01/24 02:12:42;;;;;;;8.00;5.32;;;;;;;;;;5093180;28;20505;-71
2022/01/24 02:15:08;;;;;;;8.65;5.03;;;;;;;;;;5100470;28;20039;-70
2022/01/24 02:20:43;;;;;;;8.90;5.32;;;;;;;;;;5096475;28;20044;-70
2022/01/24 02:23:21;;;;;;;9.73;5.63;;;;;;;;;;5096514;28;20044;-70
2022/01/24 02:25:47;;;;;;;9.70;5.72;;;;;;;;;;5092631;28;20719;-70
2022/01/24 02:28:16;;;;;;;10.70;5.45;;;;;;;;;;5098276;28;20051;-70
2022/01/24 02:31:03;;;;;;;9.65;6.00;;;;;;;;;;5095637;28;20548;-70
2022/01/24 02:33:29;;;;;;;10.65;5.63;;;;;;;;;;5085376;28;20048;-70
2022/01/24 02:35:55;;;;;;;8.57;5.28;;;;;;;;;;5095587;28;20101;-70
2022/01/24 02:49:11;;;;;;;10.32;6.20;;;;;;;;;;5090558;28;20091;-70
2022/01/24 02:51:46;;;;;;;12.65;6.38;;;;;;;;;;5099573;28;20083;-70
2022/01/24 02:54:19;;;;;;;9.27;5.70;;;;;;;;;;5100038;28;20674;-71
2022/01/24 02:56:45;;;;;;;10.35;6.30;;;;;;;;;;5105368;28;20047;-71
2022/01/24 02:59:11;;;;;;;9.48;5.38;;;;;;;;;;5093771;28;20051;-71
2022/01/24 03:01:40;;;;;;;10.93;6.60;;;;;;;;;;5109373;28;20047;-70
2022/01/24 03:04:06;;;;;;;12.02;6.65;;;;;;;;;;5099245;28;20043;-70
2022/01/24 03:06:32;;;;;;;11.23;6.75;;;;;;;;;;5098547;28;20452;-71
2022/01/24 03:08:58;;;;;;;12.45;6.75;;;;;;;;;;5094428;28;20063;-70
2022/01/24 03:11:27;;;;;;;10.95;5.72;;;;;;;;;;5090882;28;20406;-71
2022/01/24 03:13:53;;;;;;;12.55;5.60;;;;;;;;;;5087460;28;20082;-71
2022/01/24 03:16:19;;;;;;;11.43;6.70;;;;;;;;;;5088664;28;20398;-70
2022/01/24 03:18:45;;;;;;;12.52;6.40;;;;;;;;;;5093190;28;20044;-70
2022/01/24 03:21:11;;;;;;;10.05;5.95;;;;;;;;;;5101114;28;20031;-71
2022/01/24 03:23:37;;;;;;;12.82;6.32;;;;;;;;;;5095089;28;20398;-70
2022/01/24 03:26:03;;;;;;;11.65;6.80;;;;;;;;;;5096781;28;20118;-70
2022/01/24 03:28:29;;;;;;;12.77;6.65;;;;;;;;;;5084512;28;20040;-71
2022/01/24 03:30:55;;;;;;;9.98;6.05;;;;;;;;;;5101400;28;20565;-70
2022/01/24 03:33:22;;;;;;;10.50;7.03;;;;;;;;;;5091988;28;20136;-70
2022/01/24 03:35:48;;;;;;;11.73;6.95;;;;;;;;;;5098230;28;20039;-70
2022/01/24 03:38:15;;;;;;;11.95;7.38;;;;;;;;;;5085771;28;20501;-71
2022/01/24 03:40:41;;;;;;;11.48;5.85;;;;;;;;;;5096400;28;20051;-71
2022/01/24 03:43:07;;;;;;;11.35;6.90;;;;;;;;;;5096075;28;20050;-70
2022/01/24 03:45:41;;;;;;;11.98;7.20;;;;;;;;;;5089809;28;20048;-71
2022/01/24 03:48:22;;;;;;;12.15;6.53;;;;;;;;;;5089830;28;20368;-70
2022/01/24 03:50:49;;;;;;;12.18;6.85;;;;;;;;;;5089054;28;20059;-70
2022/01/24 03:53:15;;;;;;;11.43;6.38;;;;;;;;;;5104707;28;20032;-71
2022/01/24 03:55:41;;;;;;;11.52;6.85;;;;;;;;;;5104655;28;20051;-70
2022/01/24 03:58:07;;;;;;;13.18;7.57;;;;;;;;;;5094623;28;20096;-70
2022/01/24 04:00:33;;;;;;;10.95;6.65;;;;;;;;;;5108520;28;20057;-71
2022/01/24 04:02:59;;;;;;;12.85;8.07;;;;;;;;;;5097401;28;20126;-70
2022/01/24 04:05:26;;;;;;;13.90;7.80;;;;;;;;;;5098761;28;20040;-70
2022/01/24 04:07:52;;;;;;;15.60;8.45;;;;;;;;;;5107787;28;20099;-70
2022/01/24 04:10:20;;;;;;;13.20;8.10;;;;;;;;;;5093882;28;20476;-70
2022/01/24 04:12:46;;;;;;;13.07;7.78;;;;;;;;;;5082409;28;20059;-70
2022/01/24 04:15:26;;;;;;;13.88;7.93;;;;;;;;;;5105232;28;20482;-71
2022/01/24 04:18:10;;;;;;;14.20;8.10;;;;;;;;;;5101193;28;20051;-70
2022/01/24 04:23:21;;;;;;;15.23;8.35;;;;;;;;;;5099478;28;20097;-70
2022/01/24 04:25:48;;;;;;;18.23;9.45;;;;;;;;;;5105135;28;20112;-70
2022/01/24 04:28:14;;;;;;;17.17;8.93;;;;;;;;;;5084461;28;20039;-70
2022/01/24 04:30:40;;;;;;;16.48;9.20;;;;;;;;;;5089229;28;20483;-70
2022/01/24 04:33:06;;;;;;;15.43;9.00;;;;;;;;;;5093380;28;20113;-70
2022/01/24 04:35:32;;;;;;;14.82;8.35;;;;;;;;;;5089999;28;20460;-70
2022/01/24 04:37:58;;;;;;;15.43;9.23;;;;;;;;;;5093765;28;20052;-71
2022/01/24 04:40:25;;;;;;;18.98;8.98;;;;;;;;;;5098657;28;20044;-70
2022/01/24 04:43:01;;;;;;;19.83;9.35;;;;;;;;;;5098174;28;20040;-71
2022/01/24 04:46:15;;;;;;;15.98;10.30;;;;;;;;;;5098423;28;20051;-71
2022/01/24 04:51:04;;;;;;;17.23;10.63;;;;;;;;;;5092598;28;20529;-71
2022/01/24 04:55:59;;;;;;;17.17;9.98;;;;;;;;;;5088210;28;20051;-71
2022/01/24 04:58:25;;;;;;;17.60;10.07;;;;;;;;;;5104667;28;20040;-70
2022/01/24 05:00:51;;;;;;;17.20;9.85;;;;;;;;;;5098294;28;20425;-71
2022/01/24 05:03:17;;;;;;;18.67;10.02;;;;;;;;;;5092184;28;20129;-71
2022/01/24 05:05:44;;;;;;;17.83;10.88;;;;;;;;;;5094397;28;20040;-71
2022/01/24 05:08:10;;;;;;;18.27;11.50;;;;;;;;;;5086485;28;20040;-71
2022/01/24 05:10:42;;;;;;;18.40;10.77;;;;;;;;;;5109224;28;20052;-71
2022/01/24 05:21:52;;;;;;;19.40;11.18;;;;;;;;;;5097547;28;19967;-71
2022/01/24 05:24:17;;;;;;;20.92;11.98;;;;;;;;;;5095957;28;20487;-71
2022/01/24 05:26:43;;;;;;;18.67;11.10;;;;;;;;;;5100405;28;20040;-71
2022/01/24 05:29:09;;;;;;;19.63;10.75;;;;;;;;;;5104249;28;20043;-71
2022/01/24 05:31:35;;;;;;;19.90;11.73;;;;;;;;;;5103891;28;20056;-71
2022/01/24 05:34:01;;;;;;;21.65;11.80;;;;;;;;;;5091971;28;20134;-71
2022/01/24 05:36:27;;;;;;;17.90;10.73;;;;;;;;;;5102534;28;20487;-71
2022/01/24 05:38:53;;;;;;;19.77;11.45;;;;;;;;;;5093757;28;20062;-71
2022/01/24 05:41:19;;;;;;;18.45;10.68;;;;;;;;;;5092933;28;20425;-71
2022/01/24 05:43:45;;;;;;;18.95;11.30;;;;;;;;;;5096561;28;20583;-71
2022/01/24 05:46:11;;;;;;;18.98;11.95;;;;;;;;;;5097926;28;20051;-71
2022/01/24 05:48:37;;;;;;;17.75;9.80;;;;;;;;;;5099027;28;20129;-71
2022/01/24 05:51:03;;;;;;;20.02;10.95;;;;;;;;;;5095823;28;20140;-71
2022/01/24 05:53:29;;;;;;;18.30;10.70;;;;;;;;;;5102650;28;20402;-71
2022/01/24 05:55:55;;;;;;;16.20;9.75;;;;;;;;;;5089284;28;20048;-71
2022/01/24 05:58:21;;;;;;;19.08;9.98;;;;;;;;;;5088754;28;20043;-71
2022/01/24 06:00:47;;;;;;;17.67;10.80;;;;;;;;;;5089897;28;20040;-71
2022/01/24 06:03:13;;;;;;;14.52;8.63;;;;;;;;;;5092108;28;20055;-71
2022/01/24 06:05:39;;;;;;;18.27;10.38;;;;;;;;;;5100990;28;20044;-70
2022/01/24 06:08:05;;;;;;;19.05;10.63;;;;;;;;;;5094528;28;20493;-71
2022/01/24 06:10:31;;;;;;;17.58;9.73;;;;;;;;;;5085467;28;20063;-71
2022/01/24 06:12:57;;;;;;;17.75;10.98;;;;;;;;;;5098899;28;20063;-71
2022/01/24 06:15:23;;;;;;;16.33;9.75;;;;;;;;;;5109272;27;20499;-71
2022/01/24 06:17:49;;;;;;;15.93;9.75;;;;;;;;;;5081966;28;20074;-71
2022/01/24 06:20:15;;;;;;;14.68;8.25;;;;;;;;;;5094976;28;20468;-71
2022/01/24 06:22:42;;;;;;;17.67;9.85;;;;;;;;;;5098450;28;20148;-71
2022/01/24 06:25:09;;;;;;;19.05;11.10;;;;;;;;;;5094785;28;20405;-71
2022/01/24 06:27:35;;;;;;;16.63;9.77;;;;;;;;;;5111819;28;20043;-71
2022/01/24 06:30:01;;;;;;;15.52;8.80;;;;;;;;;;5090234;28;20040;-71
2022/01/24 06:32:27;;;;;;;16.60;10.10;;;;;;;;;;5100837;28;20048;-71
2022/01/24 06:34:53;;;;;;;14.07;9.20;;;;;;;;;;5092594;28;20513;-71
2022/01/24 06:37:19;;;;;;;16.25;9.40;;;;;;;;;;5102653;28;20046;-71
2022/01/24 06:39:45;;;;;;;17.83;9.45;;;;;;;;;;5093510;28;20048;-71
2022/01/24 06:44:37;;;;;;;15.07;8.80;;;;;;;;;;5094072;28;20060;-71
2022/01/24 06:47:03;;;;;;;15.45;9.48;;;;;;;;;;5105010;28;20047;-71
2022/01/24 06:49:29;;;;;;;16.77;9.70;;;;;;;;;;5098459;28;20044;-71
2022/01/24 06:51:55;;;;;;;15.30;9.48;;;;;;;;;;5100115;28;20063;-71
2022/01/24 06:54:21;;;;;;;15.38;8.75;;;;;;;;;;5094622;28;20474;-71
2022/01/24 06:56:47;;;;;;;20.85;10.25;;;;;;;;;;5090196;28;20105;-71
2022/01/24 06:59:13;;;;;;;16.10;9.52;;;;;;;;;;5091503;28;20064;-71
2022/01/24 07:01:39;;;;;;;17.20;9.90;;;;;;;;;;5091279;28;20058;-71
2022/01/24 07:04:05;;;;;;;15.75;10.00;;;;;;;;;;5099112;28;20036;-71
2022/01/24 07:06:31;;;;;;;15.45;8.88;;;;;;;;;;5093525;28;20048;-71
2022/01/24 07:08:57;;;;;;;18.05;10.00;;;;;;;;;;5089630;28;20095;-71
2022/01/24 07:11:23;;;;;;;17.42;10.57;;;;;;;;;;5099660;28;20075;-71
2022/01/24 07:13:50;;;;;;;17.17;10.15;;;;;;;;;;5096910;28;20131;-72
2022/01/24 07:16:16;;;;;;;17.70;10.07;;;;;;;;;;5083558;28;20049;-73
2022/01/24 07:18:58;;;;;;;19.30;10.68;;;;;;;;;;5098625;28;20048;-73
2022/01/24 07:21:24;;;;;;;18.73;10.45;;;;;;;;;;5085388;28;20440;-73
2022/01/24 07:23:50;;;;;;;18.17;10.63;;;;;;;;;;5087851;28;20040;-73
2022/01/24 07:26:16;;;;;;;20.00;10.88;;;;;;;;;;5087769;28;20050;-71
2022/01/24 07:28:44;;;;;;;18.23;11.27;;;;;;;;;;5088235;28;20050;-71
2022/01/24 07:31:10;;;;;;;17.45;10.02;;;;;;;;;;5087932;28;20051;-70
2022/01/24 07:33:36;;;;;;;21.23;11.23;;;;;;;;;;5101205;28;20084;-70
2022/01/24 07:36:02;;;;;;;20.40;11.43;;;;;;;;;;5094606;28;20083;-69
2022/01/24 07:38:29;;;;;;;20.25;11.90;;;;;;;;;;5104791;27;20043;-68
2022/01/24 07:40:56;;;;;;;19.38;11.43;;;;;;;;;;5087029;28;20040;-69
2022/01/24 07:43:22;;;;;;;22.17;11.88;;;;;;;;;;5097755;28;20490;-68
2022/01/24 07:45:49;;;;;;;19.65;11.73;;;;;;;;;;5091436;28;20093;-68
2022/01/24 07:48:16;;;;;;;20.25;11.68;;;;;;;;;;5091684;28;20095;-68
2022/01/24 07:50:44;;;;;;;20.70;12.25;;;;;;;;;;5087741;28;20104;-68
2022/01/24 07:53:14;;;;;;;22.95;11.38;;;;;;;;;;5085029;28;20372;-68
2022/01/24 07:55:40;;;;;;;25.67;11.52;;;;;;;;;;5095642;28;20131;-69
2022/01/24 07:58:06;;;;;;;20.05;12.02;;;;;;;;;;5091609;28;20623;-68
2022/01/24 08:00:32;;;;;;;22.58;12.65;;;;;;;;;;5065206;28;20050;-68
2022/01/24 08:02:58;;;;;;;21.83;12.60;;;;;;;;;;5073826;28;20131;-68
2022/01/24 08:05:25;;;;;;;20.00;11.85;;;;;;;;;;5076598;28;20179;-68
2022/01/24 08:07:51;;;;;;;20.30;12.07;;;;;;;;;;5076405;28;20048;-68
2022/01/24 08:10:17;;;;;;;19.98;11.70;;;;;;;;;;5070998;28;20521;-70
2022/01/24 08:12:44;;;;;;;19.95;11.43;;;;;;;;;;5093252;28;20135;-70
2022/01/24 08:15:12;;;;;;;21.55;11.27;;;;;;;;;;5075463;28;20421;-71
2022/01/24 08:17:39;;;;;;;20.45;11.35;;;;;;;;;;5091501;28;20048;-71
2022/01/24 08:20:05;;;;;;;23.38;12.07;;;;;;;;;;5072532;28;20078;-71
2022/01/24 08:22:31;;;;;;;20.45;11.63;;;;;;;;;;5076712;28;20477;-71
2022/01/24 08:24:57;;;;;;;20.25;12.07;;;;;;;;;;5074085;28;20044;-71
2022/01/24 08:27:25;;;;;;;20.77;11.98;;;;;;;;;;5079206;28;20052;-71
2022/01/24 08:29:51;;;;;;;19.63;12.18;;;;;;;;;;5070655;28;20060;-71
2022/01/24 08:32:18;;;;;;;24.83;12.18;;;;;;;;;;5074036;28;20134;-72
2022/01/24 08:34:44;;;;;;;23.25;13.80;;;;;;;;;;5074816;28;20052;-72
2022/01/24 08:37:10;;;;;;;23.23;12.55;;;;;;;;;;5073528;28;20052;-72
2022/01/24 08:39:36;;;;;;;23.40;12.85;;;;;;;;;;5070645;28;20059;-72
2022/01/24 08:42:55;;;;;;;24.55;13.10;;;;;;;;;;5072439;28;20076;-72
2022/01/24 08:47:21;;;;;;;25.40;14.05;;;;;;;;;;5079735;28;20170;-72
2022/01/24 08:49:47;;;;;;;31.63;15.23;;;;;;;;;;5071383;28;20055;-72
2022/01/24 08:52:13;;;;;;;29.95;15.90;;;;;;;;;;5095644;27;20109;-72
2022/01/24 08:54:39;;;;;;;28.63;15.20;;;;;;;;;;5082155;28;20058;-72
2022/01/24 08:57:05;;;;;;;27.92;14.63;;;;;;;;;;5078908;28;20044;-72
2022/01/24 08:59:33;;;;;;;28.67;15.00;;;;;;;;;;5084222;27;20143;-70
2022/01/24 09:01:59;;;;;;;25.08;14.88;;;;;;;;;;5079592;28;21273;-71
2022/01/24 09:04:25;;;;;;;33.30;15.93;;;;;;;;;;5081124;28;20063;-71
2022/01/24 09:06:52;;;;;;;28.40;15.90;;;;;;;;;;5077031;28;20208;-72
2022/01/24 09:09:19;;;;;;;29.65;15.70;;;;;;;;;;5071439;28;20144;-81
2022/01/24 09:11:45;;;;;;;30.33;15.35;;;;;;;;;;5077186;28;20492;-77
2022/01/24 09:14:12;;;;;;;28.73;16.33;;;;;;;;;;5079008;28;20139;-74
2022/01/24 09:16:38;;;;;;;29.08;15.38;;;;;;;;;;5093897;28;20555;-72
2022/01/24 09:19:05;;;;;;;33.58;17.77;;;;;;;;;;5073727;28;20036;-73
2022/01/24 09:21:31;;;;;;;28.23;16.15;;;;;;;;;;5076964;28;20094;-73
2022/01/24 09:23:57;;;;;;;29.42;15.10;;;;;;;;;;5080604;28;20139;-73
2022/01/24 09:26:23;;;;;;;32.47;16.17;;;;;;;;;;5076106;28;20070;-73
2022/01/24 09:28:49;;;;;;;29.00;16.17;;;;;;;;;;5078253;28;20052;-73
2022/01/24 09:31:15;;;;;;;36.42;17.75;;;;;;;;;;5086524;28;20056;-73
2022/01/24 09:33:41;;;;;;;31.65;18.30;;;;;;;;;;5077251;28;20776;-73
2022/01/24 09:36:07;;;;;;;29.90;16.88;;;;;;;;;;5078780;28;20043;-73
2022/01/24 09:38:34;;;;;;;35.42;18.50;;;;;;;;;;5077987;28;20047;-73
2022/01/24 09:41:04;;;;;;;34.80;16.90;;;;;;;;;;5070982;28;20692;-71
2022/01/24 09:43:30;;;;;;;35.88;17.38;;;;;;;;;;5075983;28;20475;-71
2022/01/24 09:45:57;;;;;;;31.63;17.95;;;;;;;;;;5078817;28;20040;-71
2022/01/24 09:48:23;;;;;;;36.97;19.08;;;;;;;;;;5075877;28;20820;-68
2022/01/24 09:50:53;;;;;;;39.60;18.65;;;;;;;;;;5072413;28;20049;-68
2022/01/24 09:53:20;;;;;;;38.58;19.50;;;;;;;;;;5079260;28;20500;-69
2022/01/24 09:55:46;;;;;;;43.35;21.45;;;;;;;;;;5078889;28;20060;-69
2022/01/24 09:58:12;;;;;;;42.85;20.17;;;;;;;;;;5077863;28;20052;-69
2022/01/24 10:00:39;;;;;;;40.67;20.45;;;;;;;;;;5072152;28;20040;-69
2022/01/24 10:03:05;;;;;;;42.15;21.63;;;;;;;;;;5070467;28;20415;-68
2022/01/24 10:05:37;;;;;;;43.10;20.90;;;;;;;;;;5073736;28;20040;-69
2022/01/24 10:08:05;;;;;;;51.92;25.92;;;;;;;;;;5076192;28;20098;-69
2022/01/24 10:10:47;;;;;;;50.58;25.50;;;;;;;;;;5066957;28;20503;-68
2022/01/24 10:18:58;;;;;;;49.55;25.55;;;;;;;;;;5075090;28;20104;-71
2022/01/24 10:21:24;;;;;;;54.92;27.00;;;;;;;;;;5073703;28;20063;-72
2022/01/24 10:23:50;;;;;;;54.25;27.58;;;;;;;;;;5077376;28;20048;-71
2022/01/24 10:26:16;;;;;;;56.33;28.40;;;;;;;;;;5076545;28;20056;-72
2022/01/24 10:28:43;;;;;;;55.20;27.00;;;;;;;;;;5077016;28;20048;-73
2022/01/24 10:31:25;;;;;;;59.58;29.42;;;;;;;;;;5069742;28;20044;-73
2022/01/24 10:34:13;;;;;;;61.03;31.80;;;;;;;;;;5078393;28;20107;-72
2022/01/24 10:36:46;;;;;;;62.15;29.33;;;;;;;;;;5091289;28;20079;-71
2022/01/24 10:39:13;;;;;;;65.03;32.53;;;;;;;;;;5072746;28;20090;-72
2022/01/24 10:41:54;;;;;;;59.70;30.33;;;;;;;;;;5076175;28;20171;-71
2022/01/24 10:44:36;;;;;;;65.35;32.85;;;;;;;;;;5076552;28;20052;-72
2022/01/24 10:47:23;;;;;;;63.78;29.30;;;;;;;;;;5077794;28;20064;-72
2022/01/24 10:49:50;;;;;;;66.88;33.35;;;;;;;;;;5068518;28;20542;-72
2022/01/24 10:52:19;;;;;;;68.15;32.50;;;;;;;;;;5075704;28;20049;-72
2022/01/24 10:54:45;;;;;;;57.20;30.08;;;;;;;;;;5077043;28;20598;-72
2022/01/24 10:57:20;;;;;;;58.58;31.00;;;;;;;;;;5075831;28;20044;-72
2022/01/24 10:59:46;;;;;;;60.97;32.47;;;;;;;;;;5068292;28;20052;-71
2022/01/24 11:02:15;;;;;;;62.38;32.05;;;;;;;;;;5076809;28;20383;-72
2022/01/24 11:04:41;;;;;;;65.75;32.80;;;;;;;;;;5075015;28;20040;-71
2022/01/24 11:07:07;;;;;;;67.93;33.67;;;;;;;;;;5075282;28;20059;-72
2022/01/24 11:09:33;;;;;;;64.35;32.80;;;;;;;;;;5087128;28;20055;-71
2022/01/24 11:12:01;;;;;;;65.85;33.33;;;;;;;;;;5072942;28;20498;-72
2022/01/24 11:14:29;;;;;;;66.57;32.60;;;;;;;;;;5074293;28;20036;-71
2022/01/24 11:16:58;;;;;;;62.08;32.28;;;;;;;;;;5077512;28;20059;-71
2022/01/24 11:21:55;;;;;;;61.42;31.73;;;;;;;;;;5077475;28;20110;-71
2022/01/24 11:24:29;;;;;;;59.10;30.92;;;;;;;;;;5076062;28;20143;-71
2022/01/24 11:26:55;;;;;;;62.70;32.38;;;;;;;;;;5076540;28;20155;-71
2022/01/24 11:29:22;;;;;;;61.45;32.15;;;;;;;;;;5068188;28;20375;-71
2022/01/24 11:31:56;;;;;;;58.13;30.08;;;;;;;;;;5073377;28;20113;-71
2022/01/24 11:34:30;;;;;;;58.22;30.35;;;;;;;;;;5075630;28;20403;-71
2022/01/24 11:36:57;;;;;;;64.22;32.75;;;;;;;;;;5078986;28;20055;-71
2022/01/24 11:39:23;;;;;;;62.33;32.40;;;;;;;;;;5069824;28;20063;-71
2022/01/24 11:41:50;;;;;;;66.95;33.33;;;;;;;;;;5075797;28;20096;-71
2022/01/24 11:44:18;;;;;;;62.10;32.75;;;;;;;;;;5072420;28;20117;-71
2022/01/24 11:46:49;;;;;;;66.68;34.28;;;;;;;;;;5075444;28;20124;-72
2022/01/24 11:49:20;;;;;;;64.93;32.72;;;;;;;;;;5070422;28;20055;-71
2022/01/24 11:51:47;;;;;;;55.25;30.20;;;;;;;;;;5075245;28;20049;-72
2022/01/24 11:55:01;;;;;;;49.33;26.40;;;;;;;;;;5074787;28;20183;-72
2022/01/24 11:57:22;;;;;;;52.78;27.73;;;;;;;;;;5076161;28;20060;-71
2022/01/24 11:59:48;;;;;;;45.40;24.25;;;;;;;;;;5069516;28;20055;-71
2022/01/24 12:02:19;;;;;;;47.30;25.38;;;;;;;;;;5075888;28;20653;-71
2022/01/24 12:04:53;;;;;;;55.95;29.02;;;;;;;;;;5075127;28;20052;-71
2022/01/24 12:07:20;;;;;;;51.60;27.87;;;;;;;;;;5074435;28;20526;-74
2022/01/24 12:09:46;;;;;;;44.30;24.92;;;;;;;;;;5063915;28;20056;-74
2022/01/24 12:12:38;;;;;;;40.00;23.02;;;;;;;;;;5076643;28;20052;-72
2022/01/24 12:15:06;;;;;;;42.58;24.52;;;;;;;;;;5089239;28;20036;-73
2022/01/24 12:17:44;;;;;;;41.45;22.80;;;;;;;;;;5078137;28;20367;-73
2022/01/24 12:20:29;;;;;;;41.80;23.67;;;;;;;;;;5067017;28;20048;-71
2022/01/24 12:22:56;;;;;;;42.60;24.08;;;;;;;;;;5074946;28;20158;-72
2022/01/24 12:25:48;;;;;;;41.25;24.17;;;;;;;;;;5075105;28;20675;-72
2022/01/24 12:28:23;;;;;;;43.42;23.73;;;;;;;;;;5075181;28;20146;-76
2022/01/24 12:31:08;;;;;;;44.08;24.98;;;;;;;;;;5067260;28;20415;-73
2022/01/24 12:33:42;;;;;;;39.03;21.88;;;;;;;;;;5094654;28;20055;-73
2022/01/24 12:36:15;;;;;;;36.30;21.63;;;;;;;;;;5079002;28;20079;-73
2022/01/24 12:38:46;;;;;;;33.78;19.95;;;;;;;;;;5079994;28;20768;-73
2022/01/24 12:41:36;;;;;;;42.35;21.58;;;;;;;;;;5075479;28;20123;-73
2022/01/24 12:46:29;;;;;;;41.60;23.92;;;;;;;;;;5082624;28;20040;-74
2022/01/24 12:49:00;;;;;;;39.05;21.15;;;;;;;;;;5076409;28;20058;-74
2022/01/24 12:51:27;;;;;;;38.60;21.23;;;;;;;;;;5077037;28;20078;-74
2022/01/24 12:53:54;;;;;;;40.88;22.13;;;;;;;;;;5081085;28;20056;-74
2022/01/24 12:56:24;;;;;;;38.15;22.15;;;;;;;;;;5071457;28;20135;-73
2022/01/24 12:58:50;;;;;;;34.67;20.77;;;;;;;;;;5081211;28;20135;-75
2022/01/24 13:01:21;;;;;;;37.00;21.05;;;;;;;;;;5073886;28;20056;-74
2022/01/24 13:03:58;;;;;;;41.60;22.85;;;;;;;;;;5079271;28;20529;-74
2022/01/24 13:06:25;;;;;;;39.05;23.08;;;;;;;;;;5081943;28;20063;-75
2022/01/24 13:08:57;;;;;;;38.35;21.90;;;;;;;;;;5079756;28;20047;-74
2022/01/24 13:11:23;;;;;;;42.95;24.27;;;;;;;;;;5074258;28;20067;-75
2022/01/24 13:13:59;;;;;;;40.83;22.92;;;;;;;;;;5080111;28;20066;-74
2022/01/24 13:22:24;;;;;;;36.00;21.70;;;;;;;;;;5079069;28;20052;-78
2022/01/24 13:25:05;;;;;;;39.03;22.60;;;;;;;;;;5079794;28;20672;-75
2022/01/24 13:27:41;;;;;;;41.55;23.42;;;;;;;;;;5080519;28;20036;-73
2022/01/24 13:30:09;;;;;;;37.67;21.02;;;;;;;;;;5086596;28;20044;-71
2022/01/24 13:32:49;;;;;;;38.50;21.20;;;;;;;;;;5080701;28;20406;-72
2022/01/24 13:35:31;;;;;;;41.10;22.92;;;;;;;;;;5096989;28;20059;-71
2022/01/24 13:38:03;;;;;;;40.15;21.83;;;;;;;;;;5078484;28;20067;-71
2022/01/24 13:40:41;;;;;;;41.10;22.73;;;;;;;;;;5067620;28;20135;-71
2022/01/24 13:43:08;;;;;;;37.58;21.88;;;;;;;;;;5081444;28;20044;-71
2022/01/24 13:45:35;;;;;;;35.92;20.38;;;;;;;;;;5078228;28;20049;-70
2022/01/24 13:48:02;;;;;;;37.53;22.10;;;;;;;;;;5078032;28;20521;-71
2022/01/24 13:50:29;;;;;;;38.90;21.63;;;;;;;;;;5069737;28;20062;-72
2022/01/24 13:52:55;;;;;;;39.75;22.75;;;;;;;;;;5094239;28;20052;-72
2022/01/24 13:55:25;;;;;;;40.25;22.00;;;;;;;;;;5078879;28;20083;-72
2022/01/24 13:57:53;;;;;;;35.03;20.52;;;;;;;;;;5078726;28;20044;-71
2022/01/24 14:00:25;;;;;;;39.22;21.10;;;;;;;;;;5070986;28;20044;-72
2022/01/24 14:03:04;;;;;;;35.22;20.35;;;;;;;;;;5078078;28;20560;-72
2022/01/24 14:05:30;;;;;;;39.75;21.88;;;;;;;;;;5081125;28;20051;-71
2022/01/24 14:07:56;;;;;;;37.17;21.15;;;;;;;;;;5078369;28;20487;-72
2022/01/24 14:10:22;;;;;;;38.75;22.13;;;;;;;;;;5071895;28;20060;-72
2022/01/24 14:12:54;;;;;;;37.03;20.75;;;;;;;;;;5080321;28;21452;-72
2022/01/24 14:15:40;;;;;;;39.60;22.33;;;;;;;;;;5078429;28;20181;-72
2022/01/24 14:20:45;;;;;;;37.25;21.13;;;;;;;;;;5069121;28;20051;-72
2022/01/24 14:23:22;;;;;;;39.78;22.38;;;;;;;;;;5095763;28;20437;-71
2022/01/24 14:25:48;;;;;;;40.53;22.83;;;;;;;;;;5077707;28;20056;-71
2022/01/24 14:28:14;;;;;;;39.60;21.77;;;;;;;;;;5077183;28;20047;-71
2022/01/24 14:30:42;;;;;;;40.33;22.98;;;;;;;;;;5072411;28;20058;-72
2022/01/24 14:33:30;;;;;;;40.38;23.23;;;;;;;;;;5079241;28;20421;-72
2022/01/24 14:36:01;;;;;;;40.92;23.38;;;;;;;;;;5078833;28;20075;-71
2022/01/24 14:38:38;;;;;;;41.10;25.20;;;;;;;;;;5078272;28;20039;-71
2022/01/24 14:41:09;;;;;;;41.13;24.02;;;;;;;;;;5067876;28;20059;-72
2022/01/24 14:46:31;;;;;;;41.75;24.38;;;;;;;;;;5078777;28;20136;-71
2022/01/24 14:49:03;;;;;;;43.63;25.90;;;;;;;;;;5075163;28;20067;-72
2022/01/24 14:51:31;;;;;;;42.13;24.23;;;;;;;;;;5075613;28;20060;-72
2022/01/24 14:53:59;;;;;;;46.78;26.02;;;;;;;;;;5076606;28;20048;-72
2022/01/24 14:56:26;;;;;;;48.10;26.77;;;;;;;;;;5075726;28;20044;-71
2022/01/24 14:58:52;;;;;;;46.95;26.55;;;;;;;;;;5078048;28;20043;-71
2022/01/24 15:01:18;;;;;;;49.22;25.13;;;;;;;;;;5073137;28;20048;-70
2022/01/24 15:03:45;;;;;;;47.42;26.92;;;;;;;;;;5077677;28;20048;-70
2022/01/24 15:06:12;;;;;;;44.13;24.80;;;;;;;;;;5078393;28;20044;-70
2022/01/24 15:08:39;;;;;;;48.65;27.20;;;;;;;;;;5077155;28;20426;-70
2022/01/24 15:11:05;;;;;;;51.45;26.73;;;;;;;;;;5071491;28;20113;-70
2022/01/24 15:13:39;;;;;;;49.38;25.55;;;;;;;;;;5079364;28;20044;-70
2022/01/24 15:16:18;;;;;;;56.20;33.08;;;;;;;;;;5079231;28;20040;-70
2022/01/24 15:26:50;;;;;;;55.10;30.80;;;;;;;;;;5097895;28;20055;-73
2022/01/24 15:29:19;;;;;;;54.13;30.40;;;;;;;;;;5086674;28;20044;-73
2022/01/24 15:31:46;;;;;;;54.38;30.73;;;;;;;;;;5104983;27;20506;-73
2022/01/24 15:34:18;;;;;;;53.63;28.55;;;;;;;;;;5090587;28;20850;-73
2022/01/24 15:36:44;;;;;;;50.47;26.92;;;;;;;;;;5089654;28;20048;-73
2022/01/24 15:39:14;;;;;;;52.70;29.17;;;;;;;;;;5105530;27;20514;-73
2022/01/24 15:41:51;;;;;;;54.63;30.60;;;;;;;;;;5091063;28;20044;-73
2022/01/24 15:45:01;;;;;;;50.17;27.50;;;;;;;;;;5082676;28;20047;-73
2022/01/24 15:49:40;;;;;;;62.70;32.47;;;;;;;;;;5086230;28;20044;-72
2022/01/24 15:52:12;;;;;;;54.20;30.30;;;;;;;;;;5088435;28;20048;-71
2022/01/24 15:54:38;;;;;;;57.28;30.42;;;;;;;;;;5088427;28;20040;-72
2022/01/24 15:59:49;;;;;;;62.10;29.30;;;;;;;;;;5080188;28;20121;-72
2022/01/24 16:02:15;;;;;;;61.10;31.52;;;;;;;;;;5106083;28;20106;-72
2022/01/24 16:04:43;;;;;;;53.30;28.80;;;;;;;;;;5085029;28;20075;-72
2022/01/24 16:07:09;;;;;;;54.53;27.50;;;;;;;;;;5104019;28;20051;-72
2022/01/24 16:09:35;;;;;;;53.85;29.08;;;;;;;;;;5100387;27;20499;-72
2022/01/24 16:12:02;;;;;;;53.30;28.52;;;;;;;;;;5087947;28;20192;-72
2022/01/24 16:14:28;;;;;;;55.85;30.95;;;;;;;;;;5101620;28;20109;-73
2022/01/24 16:16:54;;;;;;;59.22;32.00;;;;;;;;;;5097839;28;20047;-73
2022/01/24 16:19:23;;;;;;;53.97;30.38;;;;;;;;;;5102739;28;20376;-73
2022/01/24 16:22:14;;;;;;;70.18;36.95;;;;;;;;;;5104796;28;20055;-74
2022/01/24 16:27:15;;;;;;;58.33;32.78;;;;;;;;;;5094062;28;20175;-73
2022/01/24 16:29:41;;;;;;;62.80;32.00;;;;;;;;;;5104809;28;20058;-74
2022/01/24 16:32:07;;;;;;;58.70;30.98;;;;;;;;;;5098248;28;20132;-73
2022/01/24 16:34:33;;;;;;;57.47;29.33;;;;;;;;;;5097809;28;20044;-73